Terminal Aerodrome Forecast
Issued by NWS Cleveland, OH

Home | Current Version | Previous Version | Graphics & Text | Print | Product List | Glossary On
Versions: 1 2 3 4 5 6 7 8 9 10 11 12 13 14 15 16 17 18 19 20 21
101
FTUS41 KCLE 221136
TAFTOL
TAF
KTOL 221136Z 2212/2312 06008KT P6SM OVC060
     FM221700 06012KT P6SM OVC015
     FM230300 07006KT P6SM OVC007
     FM230700 07008KT 4SM -PL BR OVC007
     FM231000 09007KT 4SM -RA BR OVC007=

USA.gov is the U.S. government's official web portal to all federal, state and local government web resources and services.